MUHA/HAV METAR and TAF weather

Enter ICAO airport designator
Station Type Date Time Source
MUHA METAR 2020/09/24 09:55 UTC NOAA

MUHA 240955Z 09003KT 9000 FEW025 23/23 Q1012


Station Type Date Time Source
MUHA Decoded METAR 2020/09/24 09:55 UTC NOAA

Aeropuerto Jose Marti, Rancho-Boyeros, Habana, Cuba (MUHA) 22-59N 082-24W 75M
Sep 24, 2020 - 05:55 AM EDT / 2020.09.24 0955 UTC
Wind: from the E (090 degrees) at 3 MPH (3 KT):0
Visibility: 5 mile(s):0
Sky conditions: mostly clear
Temperature: 73 F (23 C)
Dew Point: 73 F (23 C)
Relative Humidity: 100%
Pressure (altimeter): 29.88 in. Hg (1012 hPa)
ob: MUHA 240955Z 09003KT 9000 FEW025 23/23 Q1012
cycle: 10

Station Type Date Time Source
MUHA TAF 2020/09/24 06:03 UTC NOAA

TAF MUHA 240500Z 2406/2506 09005KT 9000 FEW025
BECMG 2414/2416 09010KT
TEMPO PROB30 2420/2423 VRB10KT 8000 SHRA FEW018CB BKN030

Example: see airport list